Time;durP1;ratioP1;P1;durP2;ratioP2;P2;SDS_P1;SDS_P2;PMS_P1;PMS_P2;Temp;Humidity;BMP_temperature;BMP_pressure;BME280_temperature;BME280_humidity;BME280_pressure;Samples;Min_cycle;Max_cycle;Signal;HPM_P1;HPM_P2
2024/01/22 00:02:24;;;;;;;25.10;16.17;;;;;;;;;;6227874;28;24478;-78
2024/01/22 00:05:26;;;;;;;23.57;16.10;;;;;;;;;;6229835;28;24500;-78
2024/01/22 00:08:27;;;;;;;23.27;15.57;;;;;;;;;;6228780;28;24462;-75
2024/01/22 00:11:30;;;;;;;24.08;16.20;;;;;;;;;;6228732;28;24467;-75
2024/01/22 00:14:31;;;;;;;24.60;16.00;;;;;;;;;;6229549;28;24436;-75
2024/01/22 00:17:34;;;;;;;24.95;16.67;;;;;;;;;;6229560;28;24467;-75
2024/01/22 00:20:36;;;;;;;24.60;16.35;;;;;;;;;;6229029;28;24508;-74
2024/01/22 00:23:38;;;;;;;25.25;16.92;;;;;;;;;;6229404;28;24431;-74
2024/01/22 00:26:40;;;;;;;24.95;16.67;;;;;;;;;;6229900;28;24428;-74
2024/01/22 00:29:42;;;;;;;24.02;15.90;;;;;;;;;;6229845;28;24452;-74
2024/01/22 00:32:45;;;;;;;24.25;15.63;;;;;;;;;;6229087;28;24412;-75
2024/01/22 00:35:47;;;;;;;23.13;15.90;;;;;;;;;;6228697;28;24459;-75
2024/01/22 00:38:49;;;;;;;23.25;16.48;;;;;;;;;;6229923;28;24431;-73
2024/01/22 00:41:50;;;;;;;22.67;16.02;;;;;;;;;;6229853;28;24436;-75
2024/01/22 00:44:52;;;;;;;24.50;16.63;;;;;;;;;;6229200;28;24620;-74
2024/01/22 00:47:56;;;;;;;23.20;15.32;;;;;;;;;;6227395;28;24837;-74
2024/01/22 00:50:58;;;;;;;23.30;15.82;;;;;;;;;;6228853;28;24451;-75
2024/01/22 00:54:01;;;;;;;22.67;15.63;;;;;;;;;;6228645;28;24502;-75
2024/01/22 00:57:03;;;;;;;25.73;17.17;;;;;;;;;;6228868;28;24417;-75
2024/01/22 01:00:05;;;;;;;25.15;15.98;;;;;;;;;;6226852;28;24512;-74
2024/01/22 01:03:09;;;;;;;22.53;16.13;;;;;;;;;;6228516;28;24999;-75
2024/01/22 01:06:12;;;;;;;24.67;15.73;;;;;;;;;;6226731;28;24658;-76
2024/01/22 01:09:15;;;;;;;23.73;15.45;;;;;;;;;;6228771;28;24427;-75
2024/01/22 01:12:18;;;;;;;25.30;16.25;;;;;;;;;;6228731;28;24856;-76
2024/01/22 01:15:22;;;;;;;25.00;15.83;;;;;;;;;;6227892;28;24428;-77
2024/01/22 01:18:25;;;;;;;22.92;15.05;;;;;;;;;;6228680;28;25124;-78
2024/01/22 01:21:27;;;;;;;24.23;15.80;;;;;;;;;;6228755;28;24424;-78
2024/01/22 01:24:29;;;;;;;25.55;15.68;;;;;;;;;;6228284;28;25027;-77
2024/01/22 01:27:30;;;;;;;25.60;15.45;;;;;;;;;;6227275;28;24508;-78
2024/01/22 01:30:32;;;;;;;24.55;15.35;;;;;;;;;;6228788;28;24424;-77
2024/01/22 01:33:36;;;;;;;22.52;15.10;;;;;;;;;;6221082;28;24635;-77
2024/01/22 01:36:37;;;;;;;21.98;14.82;;;;;;;;;;6226728;28;24428;-77
2024/01/22 01:39:39;;;;;;;23.60;14.43;;;;;;;;;;6225911;28;25234;-77
2024/01/22 01:42:43;;;;;;;24.08;15.48;;;;;;;;;;6227286;28;24474;-78
2024/01/22 01:45:45;;;;;;;23.95;15.05;;;;;;;;;;6226563;28;24492;-76
2024/01/22 01:48:48;;;;;;;23.52;14.73;;;;;;;;;;6225173;28;24427;-77
2024/01/22 01:51:50;;;;;;;24.58;14.50;;;;;;;;;;6227699;28;24574;-76
2024/01/22 01:54:52;;;;;;;22.83;14.77;;;;;;;;;;6210872;28;24475;-77
2024/01/22 01:57:55;;;;;;;22.47;14.33;;;;;;;;;;6226536;28;24479;-77
2024/01/22 02:00:58;;;;;;;23.13;14.98;;;;;;;;;;6227445;28;24623;-77
2024/01/22 02:04:01;;;;;;;22.25;14.15;;;;;;;;;;6226321;28;24596;-76
2024/01/22 02:07:04;;;;;;;22.13;14.13;;;;;;;;;;6226001;28;24986;-76
2024/01/22 02:10:11;;;;;;;23.63;14.83;;;;;;;;;;6227102;28;24469;-77
2024/01/22 02:13:14;;;;;;;23.90;15.00;;;;;;;;;;6227006;28;24433;-78
2024/01/22 02:16:16;;;;;;;23.00;15.15;;;;;;;;;;6226789;28;24464;-78
2024/01/22 02:19:20;;;;;;;22.23;14.85;;;;;;;;;;6227467;28;24475;-77
2024/01/22 02:22:22;;;;;;;23.65;14.50;;;;;;;;;;6227252;28;24443;-76
2024/01/22 02:25:27;;;;;;;25.33;15.23;;;;;;;;;;6227887;28;24471;-77
2024/01/22 02:28:31;;;;;;;22.00;15.00;;;;;;;;;;6227932;28;24472;-74
2024/01/22 02:31:34;;;;;;;24.00;14.57;;;;;;;;;;6226222;28;24409;-74
2024/01/22 02:34:37;;;;;;;22.65;15.15;;;;;;;;;;6226565;28;24452;-74
2024/01/22 02:37:39;;;;;;;23.02;15.27;;;;;;;;;;6227331;28;24496;-75
2024/01/22 02:40:42;;;;;;;23.35;15.23;;;;;;;;;;6224668;28;24431;-75
2024/01/22 02:43:44;;;;;;;25.65;15.98;;;;;;;;;;6226356;28;24409;-75
2024/01/22 02:46:45;;;;;;;25.30;15.52;;;;;;;;;;6226202;28;24698;-75
2024/01/22 02:49:47;;;;;;;25.10;16.10;;;;;;;;;;6226794;28;24907;-75
2024/01/22 02:52:50;;;;;;;24.15;16.17;;;;;;;;;;6226977;28;24614;-75
2024/01/22 02:55:53;;;;;;;23.48;15.90;;;;;;;;;;6230892;28;24691;-75
2024/01/22 02:58:55;;;;;;;24.17;16.05;;;;;;;;;;6230230;28;24435;-75
2024/01/22 03:01:57;;;;;;;25.33;16.60;;;;;;;;;;6230763;28;24796;-75
2024/01/22 03:05:00;;;;;;;22.17;15.88;;;;;;;;;;6231593;28;24416;-75
2024/01/22 03:08:02;;;;;;;22.67;15.35;;;;;;;;;;6230059;28;24424;-75
2024/01/22 03:11:05;;;;;;;22.70;15.23;;;;;;;;;;6229537;28;25821;-75
2024/01/22 03:14:07;;;;;;;23.73;15.63;;;;;;;;;;6228424;28;24424;-75
2024/01/22 03:17:09;;;;;;;26.05;16.40;;;;;;;;;;6230755;28;24432;-75
2024/01/22 03:20:13;;;;;;;23.60;16.08;;;;;;;;;;6230945;28;24439;-75
2024/01/22 03:23:15;;;;;;;23.27;15.80;;;;;;;;;;6231287;28;24433;-75
2024/01/22 03:26:21;;;;;;;24.88;16.17;;;;;;;;;;6230540;28;24466;-75
2024/01/22 03:29:24;;;;;;;26.88;16.90;;;;;;;;;;6228961;28;24495;-75
2024/01/22 03:32:27;;;;;;;25.75;17.08;;;;;;;;;;6229933;28;24420;-75
2024/01/22 03:35:29;;;;;;;25.85;17.05;;;;;;;;;;6230701;28;24642;-75
2024/01/22 03:38:31;;;;;;;24.17;16.80;;;;;;;;;;6230866;28;24417;-76
2024/01/22 03:41:34;;;;;;;24.98;17.17;;;;;;;;;;6230180;28;24420;-75
2024/01/22 03:44:36;;;;;;;26.15;17.00;;;;;;;;;;6229901;28;24433;-75
2024/01/22 03:47:38;;;;;;;27.08;16.80;;;;;;;;;;6229178;28;24428;-75
2024/01/22 03:50:40;;;;;;;25.48;17.40;;;;;;;;;;6231006;28;24869;-75
2024/01/22 03:53:42;;;;;;;25.23;17.05;;;;;;;;;;6230067;28;24437;-75
2024/01/22 03:56:45;;;;;;;25.67;16.92;;;;;;;;;;6230805;28;24555;-75
2024/01/22 03:59:48;;;;;;;25.27;16.92;;;;;;;;;;6230479;28;24463;-75
2024/01/22 04:02:51;;;;;;;26.33;16.90;;;;;;;;;;6227664;28;24480;-75
2024/01/22 04:05:52;;;;;;;26.55;17.10;;;;;;;;;;6229157;28;24611;-75
2024/01/22 04:08:54;;;;;;;26.52;17.77;;;;;;;;;;6228849;28;24654;-75
2024/01/22 04:11:58;;;;;;;26.70;16.60;;;;;;;;;;6229866;28;24832;-75
2024/01/22 04:14:59;;;;;;;26.65;17.02;;;;;;;;;;6229849;28;24816;-75
2024/01/22 04:18:02;;;;;;;25.30;16.43;;;;;;;;;;6229362;28;24424;-75
2024/01/22 04:21:04;;;;;;;27.05;17.63;;;;;;;;;;6227933;28;24483;-77
2024/01/22 04:24:07;;;;;;;24.45;16.85;;;;;;;;;;6227938;28;24423;-75
2024/01/22 04:27:11;;;;;;;28.55;17.40;;;;;;;;;;6230032;28;24574;-75
2024/01/22 04:30:14;;;;;;;27.75;17.33;;;;;;;;;;6228941;28;24413;-75
2024/01/22 04:33:15;;;;;;;27.70;17.97;;;;;;;;;;6227403;28;24431;-76
2024/01/22 04:36:17;;;;;;;27.30;17.65;;;;;;;;;;6229198;28;24825;-76
2024/01/22 04:39:19;;;;;;;25.15;17.75;;;;;;;;;;6229534;28;24821;-76
2024/01/22 04:42:22;;;;;;;27.30;18.07;;;;;;;;;;6229170;28;24439;-76
2024/01/22 04:45:24;;;;;;;27.02;17.65;;;;;;;;;;6229440;28;24622;-76
2024/01/22 04:48:26;;;;;;;26.80;17.15;;;;;;;;;;6227954;28;24428;-75
2024/01/22 04:51:28;;;;;;;24.92;16.23;;;;;;;;;;6228420;28;24413;-75
2024/01/22 04:54:29;;;;;;;28.75;17.50;;;;;;;;;;6228815;28;24421;-75
2024/01/22 04:57:33;;;;;;;27.37;17.97;;;;;;;;;;6227810;28;24416;-74
2024/01/22 05:00:35;;;;;;;26.08;17.10;;;;;;;;;;6227505;28;24825;-74
2024/01/22 05:03:36;;;;;;;27.38;17.35;;;;;;;;;;6226847;28;24435;-74
2024/01/22 05:06:38;;;;;;;25.20;17.15;;;;;;;;;;6227480;28;24833;-74
2024/01/22 05:09:40;;;;;;;26.52;16.70;;;;;;;;;;6226373;28;24853;-75
2024/01/22 05:12:44;;;;;;;24.55;16.38;;;;;;;;;;6228530;28;24428;-74
2024/01/22 05:15:46;;;;;;;25.02;16.70;;;;;;;;;;6210108;28;24412;-74
2024/01/22 05:18:48;;;;;;;25.13;16.30;;;;;;;;;;6228151;28;24435;-74
2024/01/22 05:21:50;;;;;;;22.10;14.75;;;;;;;;;;6228863;28;24444;-74
2024/01/22 05:24:53;;;;;;;23.02;14.88;;;;;;;;;;6227870;28;24432;-74
2024/01/22 05:27:56;;;;;;;24.38;15.05;;;;;;;;;;6228093;28;24507;-74
2024/01/22 05:30:58;;;;;;;22.17;14.68;;;;;;;;;;6228330;28;24421;-74
2024/01/22 05:34:00;;;;;;;21.48;14.80;;;;;;;;;;6227218;28;24805;-74
2024/01/22 05:37:02;;;;;;;24.55;14.93;;;;;;;;;;6227222;28;24496;-74
2024/01/22 05:40:05;;;;;;;22.10;13.43;;;;;;;;;;6227076;28;24498;-75
2024/01/22 05:43:08;;;;;;;21.20;13.98;;;;;;;;;;6227994;28;24899;-74
2024/01/22 05:46:10;;;;;;;22.23;13.63;;;;;;;;;;6225330;28;24841;-74
2024/01/22 05:49:12;;;;;;;24.23;14.60;;;;;;;;;;6210378;28;24443;-74
2024/01/22 05:52:14;;;;;;;23.23;14.70;;;;;;;;;;6227611;28;24444;-73
2024/01/22 05:55:17;;;;;;;23.92;14.20;;;;;;;;;;6227538;28;24428;-74
2024/01/22 05:58:23;;;;;;;25.33;15.23;;;;;;;;;;6226821;28;20732;-74
2024/01/22 06:01:26;;;;;;;22.02;15.38;;;;;;;;;;6226675;28;24463;-73
2024/01/22 06:04:28;;;;;;;23.83;15.68;;;;;;;;;;6227726;28;24805;-73
2024/01/22 06:07:30;;;;;;;26.40;16.52;;;;;;;;;;6227515;28;24576;-74
2024/01/22 06:10:31;;;;;;;25.02;16.77;;;;;;;;;;6224507;28;24431;-75
2024/01/22 06:13:38;;;;;;;26.02;17.27;;;;;;;;;;6227156;28;24421;-74
2024/01/22 06:16:40;;;;;;;25.58;17.25;;;;;;;;;;6226471;28;24459;-74
2024/01/22 06:19:42;;;;;;;24.52;17.42;;;;;;;;;;6227326;28;24571;-75
2024/01/22 06:22:45;;;;;;;31.73;19.02;;;;;;;;;;6226343;28;24448;-74
2024/01/22 06:25:48;;;;;;;28.30;18.60;;;;;;;;;;6226555;28;24424;-75
2024/01/22 06:28:56;;;;;;;27.58;18.13;;;;;;;;;;6226746;28;24835;-75
2024/01/22 06:31:58;;;;;;;30.83;17.90;;;;;;;;;;6227025;28;24428;-74
2024/01/22 06:34:59;;;;;;;29.25;19.05;;;;;;;;;;6226453;28;24689;-74
2024/01/22 06:38:04;;;;;;;30.33;18.98;;;;;;;;;;6226148;28;24825;-75
2024/01/22 06:41:11;;;;;;;29.85;18.85;;;;;;;;;;6227276;28;24559;-74
2024/01/22 06:44:15;;;;;;;29.98;19.40;;;;;;;;;;6226807;28;24467;-74
2024/01/22 06:47:17;;;;;;;30.60;18.98;;;;;;;;;;6224574;28;24634;-75
2024/01/22 06:50:19;;;;;;;30.23;19.55;;;;;;;;;;6223979;28;24627;-74
2024/01/22 06:53:22;;;;;;;31.42;19.75;;;;;;;;;;6225489;28;24825;-75
2024/01/22 06:56:24;;;;;;;31.65;19.38;;;;;;;;;;6225639;28;24697;-74
2024/01/22 06:59:30;;;;;;;32.65;20.63;;;;;;;;;;6226309;28;24875;-74
2024/01/22 07:02:32;;;;;;;33.53;21.63;;;;;;;;;;6224472;28;24714;-74
2024/01/22 07:05:35;;;;;;;32.95;21.00;;;;;;;;;;6224328;28;24955;-75
2024/01/22 07:08:37;;;;;;;32.17;19.88;;;;;;;;;;6226552;28;24495;-75
2024/01/22 07:11:41;;;;;;;31.03;19.53;;;;;;;;;;6219210;28;24511;-74
2024/01/22 07:14:44;;;;;;;30.58;20.13;;;;;;;;;;6225379;28;24622;-75
2024/01/22 07:17:46;;;;;;;32.50;19.40;;;;;;;;;;6226365;28;24429;-74
2024/01/22 07:20:48;;;;;;;29.50;19.45;;;;;;;;;;6224472;28;24505;-74
2024/01/22 07:23:50;;;;;;;30.50;19.05;;;;;;;;;;6224703;28;24428;-74
2024/01/22 07:26:52;;;;;;;28.35;18.95;;;;;;;;;;6225422;28;24501;-75
2024/01/22 07:29:55;;;;;;;33.78;19.73;;;;;;;;;;6224466;28;24471;-75
2024/01/22 07:32:57;;;;;;;31.52;20.30;;;;;;;;;;6224839;28;24428;-73
2024/01/22 07:35:59;;;;;;;29.77;19.25;;;;;;;;;;6223666;28;24600;-74
2024/01/22 07:39:01;;;;;;;29.33;19.50;;;;;;;;;;6224148;28;24498;-74
2024/01/22 07:42:03;;;;;;;22.90;15.23;;;;;;;;;;6229965;28;24432;-75
2024/01/22 07:45:09;;;;;;;19.27;11.93;;;;;;;;;;6225988;28;24459;-75
2024/01/22 07:48:11;;;;;;;17.85;10.85;;;;;;;;;;6229514;28;24817;-75
2024/01/22 07:51:14;;;;;;;17.48;11.15;;;;;;;;;;6227918;28;24829;-75
2024/01/22 07:54:16;;;;;;;18.17;11.00;;;;;;;;;;6235066;28;24432;-75
2024/01/22 07:57:18;;;;;;;19.30;11.30;;;;;;;;;;6229999;28;24484;-75
2024/01/22 08:00:22;;;;;;;18.55;11.70;;;;;;;;;;6227253;28;24813;-74
2024/01/22 08:03:25;;;;;;;19.05;11.20;;;;;;;;;;6230190;28;24432;-74
2024/01/22 08:06:27;;;;;;;18.10;11.20;;;;;;;;;;6228970;28;24531;-74
2024/01/22 08:09:29;;;;;;;16.95;10.75;;;;;;;;;;6229314;28;24421;-75
2024/01/22 08:12:30;;;;;;;17.42;10.98;;;;;;;;;;6229847;28;24495;-75
2024/01/22 08:15:33;;;;;;;15.13;10.50;;;;;;;;;;6229863;28;24421;-75
2024/01/22 08:18:36;;;;;;;18.63;11.68;;;;;;;;;;6229841;28;24561;-75
2024/01/22 08:21:37;;;;;;;15.85;11.15;;;;;;;;;;6234909;28;24439;-75
2024/01/22 08:24:39;;;;;;;16.77;10.90;;;;;;;;;;6229220;28;25091;-75
2024/01/22 08:27:41;;;;;;;17.40;10.90;;;;;;;;;;6230174;28;24447;-75
2024/01/22 08:30:44;;;;;;;18.90;12.43;;;;;;;;;;6228892;28;24432;-75
2024/01/22 08:33:46;;;;;;;18.27;11.48;;;;;;;;;;6228229;28;24478;-75
2024/01/22 08:36:49;;;;;;;16.55;11.57;;;;;;;;;;6228851;28;24830;-75
2024/01/22 08:39:51;;;;;;;17.25;11.63;;;;;;;;;;6229231;28;24463;-75
2024/01/22 08:42:54;;;;;;;16.73;11.70;;;;;;;;;;6228094;28;24831;-75
2024/01/22 08:45:58;;;;;;;15.82;11.10;;;;;;;;;;6229236;28;24428;-75
2024/01/22 08:49:00;;;;;;;18.27;10.90;;;;;;;;;;6228176;28;24858;-75
2024/01/22 08:52:03;;;;;;;17.37;10.73;;;;;;;;;;6227165;28;24630;-76
2024/01/22 08:55:06;;;;;;;14.32;9.48;;;;;;;;;;6227691;28;24510;-75
2024/01/22 08:58:09;;;;;;;14.15;8.90;;;;;;;;;;6229215;28;24820;-75
2024/01/22 09:01:12;;;;;;;15.48;9.20;;;;;;;;;;6229312;28;24432;-75
2024/01/22 09:04:14;;;;;;;11.33;8.33;;;;;;;;;;6228398;28;24514;-75
2024/01/22 09:07:16;;;;;;;11.57;8.00;;;;;;;;;;6228369;28;24439;-75
2024/01/22 09:10:18;;;;;;;12.93;8.50;;;;;;;;;;6228162;28;24662;-75
2024/01/22 09:13:20;;;;;;;11.38;8.00;;;;;;;;;;6226376;28;24481;-75
2024/01/22 09:16:23;;;;;;;13.55;8.90;;;;;;;;;;6228446;28;24424;-75
2024/01/22 09:19:25;;;;;;;14.23;9.27;;;;;;;;;;6228249;28;24423;-75
2024/01/22 09:22:28;;;;;;;12.15;8.68;;;;;;;;;;6228542;28;24719;-75
2024/01/22 09:25:30;;;;;;;12.60;8.43;;;;;;;;;;6228781;28;24507;-75
2024/01/22 09:28:32;;;;;;;13.65;8.52;;;;;;;;;;6226914;28;24421;-73
2024/01/22 09:31:36;;;;;;;13.10;8.68;;;;;;;;;;6227252;28;24428;-75
2024/01/22 09:34:38;;;;;;;12.10;8.40;;;;;;;;;;6227729;28;24814;-75
2024/01/22 09:37:40;;;;;;;12.25;8.75;;;;;;;;;;6227916;28;24420;-75
2024/01/22 09:40:42;;;;;;;12.93;8.68;;;;;;;;;;6228266;28;24432;-75
2024/01/22 09:43:44;;;;;;;10.85;7.75;;;;;;;;;;6227722;28;24467;-75
2024/01/22 09:46:49;;;;;;;10.75;7.47;;;;;;;;;;6227363;28;24428;-75
2024/01/22 09:49:52;;;;;;;11.80;7.23;;;;;;;;;;6227331;28;24464;-75
2024/01/22 09:52:58;;;;;;;12.37;7.67;;;;;;;;;;6226621;28;24559;-74
2024/01/22 09:56:01;;;;;;;11.55;8.18;;;;;;;;;;6226423;28;25048;-74
2024/01/22 09:59:07;;;;;;;9.98;7.25;;;;;;;;;;6227965;28;24475;-75
2024/01/22 10:02:12;;;;;;;12.93;8.38;;;;;;;;;;6227592;28;24436;-75
2024/01/22 10:05:14;;;;;;;11.68;8.20;;;;;;;;;;6219916;28;24420;-74
2024/01/22 10:08:16;;;;;;;14.37;8.47;;;;;;;;;;6228017;28;24442;-75
2024/01/22 10:11:19;;;;;;;10.38;8.05;;;;;;;;;;6209084;28;24431;-75
2024/01/22 10:14:30;;;;;;;11.55;8.00;;;;;;;;;;6227592;28;24432;-75
2024/01/22 10:17:34;;;;;;;10.65;7.68;;;;;;;;;;6227062;28;24444;-75
2024/01/22 10:20:36;;;;;;;11.25;7.20;;;;;;;;;;6227432;28;24433;-75
2024/01/22 10:23:40;;;;;;;11.03;7.67;;;;;;;;;;6227291;28;24425;-75
2024/01/22 10:26:42;;;;;;;11.73;7.90;;;;;;;;;;6227396;28;24432;-75
2024/01/22 10:29:44;;;;;;;10.43;7.10;;;;;;;;;;6227547;28;24431;-75
2024/01/22 10:32:48;;;;;;;10.50;7.28;;;;;;;;;;6227001;28;24421;-75
2024/01/22 10:35:51;;;;;;;9.65;6.90;;;;;;;;;;6225883;28;24435;-75
2024/01/22 10:39:04;;;;;;;11.38;7.30;;;;;;;;;;6226192;28;24420;-75
2024/01/22 10:42:10;;;;;;;10.95;7.47;;;;;;;;;;6226449;28;24428;-75
2024/01/22 10:45:12;;;;;;;11.07;7.32;;;;;;;;;;6226981;28;24429;-75
2024/01/22 10:48:17;;;;;;;11.88;8.10;;;;;;;;;;6226662;28;24431;-75
2024/01/22 10:51:20;;;;;;;10.23;7.47;;;;;;;;;;6227297;28;24752;-75
2024/01/22 10:54:22;;;;;;;11.02;7.65;;;;;;;;;;6226298;28;24444;-75
2024/01/22 10:57:27;;;;;;;10.10;8.25;;;;;;;;;;6226639;28;24809;-75
2024/01/22 11:00:30;;;;;;;10.02;8.02;;;;;;;;;;6226622;28;24435;-75
2024/01/22 11:03:36;;;;;;;12.65;8.48;;;;;;;;;;6224268;28;24526;-75
2024/01/22 11:06:42;;;;;;;12.73;8.57;;;;;;;;;;6226170;28;24421;-75
2024/01/22 11:09:45;;;;;;;13.27;8.98;;;;;;;;;;6226627;28;24532;-75
2024/01/22 11:12:50;;;;;;;13.02;8.98;;;;;;;;;;6226740;28;24425;-75
2024/01/22 11:15:52;;;;;;;13.33;9.20;;;;;;;;;;6230766;28;24500;-75
2024/01/22 11:18:56;;;;;;;12.65;9.10;;;;;;;;;;6229658;28;24424;-75
2024/01/22 11:21:58;;;;;;;14.13;9.80;;;;;;;;;;6230354;28;24428;-75
2024/01/22 11:25:03;;;;;;;13.65;9.70;;;;;;;;;;6228668;28;25583;-75
2024/01/22 11:28:07;;;;;;;13.73;9.90;;;;;;;;;;6231305;28;24528;-75
2024/01/22 11:31:26;;;;;;;14.30;9.60;;;;;;;;;;6230534;28;24875;-75
2024/01/22 11:34:47;;;;;;;15.00;10.52;;;;;;;;;;6231093;28;24424;-75
2024/01/22 11:37:49;;;;;;;15.27;10.45;;;;;;;;;;6231102;28;24421;-75
2024/01/22 11:40:55;;;;;;;14.20;10.32;;;;;;;;;;6229170;28;24427;-75
2024/01/22 11:43:57;;;;;;;13.37;10.57;;;;;;;;;;6230145;28;24435;-75
2024/01/22 11:47:05;;;;;;;14.38;10.80;;;;;;;;;;6229719;28;24428;-75
2024/01/22 11:50:10;;;;;;;14.33;10.43;;;;;;;;;;6207731;28;24427;-75
2024/01/22 11:53:12;;;;;;;13.88;10.50;;;;;;;;;;6228062;28;24574;-75
2024/01/22 11:56:14;;;;;;;13.68;10.57;;;;;;;;;;6230479;28;24810;-75
2024/01/22 11:59:16;;;;;;;14.52;11.07;;;;;;;;;;6228725;28;24662;-75
2024/01/22 12:02:18;;;;;;;17.42;11.20;;;;;;;;;;6229078;28;24502;-75
2024/01/22 12:05:21;;;;;;;15.85;11.38;;;;;;;;;;6228816;28;24837;-75
2024/01/22 12:08:23;;;;;;;16.15;11.70;;;;;;;;;;6229424;28;24437;-75
2024/01/22 12:11:25;;;;;;;17.10;11.53;;;;;;;;;;6229486;28;24630;-77
2024/01/22 12:14:27;;;;;;;16.83;12.20;;;;;;;;;;6228787;28;24432;-74
2024/01/22 12:17:29;;;;;;;15.70;11.68;;;;;;;;;;6228594;28;24668;-75
2024/01/22 12:20:33;;;;;;;15.90;11.27;;;;;;;;;;6228222;28;24425;-75
2024/01/22 12:23:36;;;;;;;13.90;10.87;;;;;;;;;;6229037;28;24513;-75
2024/01/22 12:26:40;;;;;;;13.40;10.20;;;;;;;;;;6229997;28;24416;-76
2024/01/22 12:29:41;;;;;;;15.18;9.98;;;;;;;;;;6232138;28;24432;-76
2024/01/22 12:32:51;;;;;;;13.57;10.37;;;;;;;;;;6231019;28;25161;-77
2024/01/22 12:36:06;;;;;;;13.30;10.63;;;;;;;;;;6228745;28;24424;-76
2024/01/22 12:39:08;;;;;;;14.30;9.77;;;;;;;;;;6228777;28;24426;-75
2024/01/22 12:42:17;;;;;;;14.23;9.90;;;;;;;;;;6229224;28;24469;-74
2024/01/22 12:45:20;;;;;;;12.85;9.88;;;;;;;;;;6228391;28;24500;-74
2024/01/22 12:48:22;;;;;;;12.60;9.98;;;;;;;;;;6228408;28;24424;-75
2024/01/22 12:51:28;;;;;;;13.10;9.90;;;;;;;;;;6228974;28;25036;-74
2024/01/22 12:54:30;;;;;;;13.83;9.97;;;;;;;;;;6229418;28;24466;-74
2024/01/22 12:57:32;;;;;;;11.95;9.45;;;;;;;;;;6226919;28;24431;-75
2024/01/22 13:00:34;;;;;;;12.73;9.18;;;;;;;;;;6227386;28;24851;-75
2024/01/22 13:03:36;;;;;;;11.60;8.52;;;;;;;;;;6228514;28;24417;-75
2024/01/22 13:06:39;;;;;;;11.57;8.82;;;;;;;;;;6228371;28;24536;-75
2024/01/22 13:09:42;;;;;;;12.57;8.93;;;;;;;;;;6228496;28;24832;-75
2024/01/22 13:12:43;;;;;;;11.25;8.75;;;;;;;;;;6225198;28;24563;-74
2024/01/22 13:15:46;;;;;;;14.30;8.93;;;;;;;;;;6227100;28;24425;-74
2024/01/22 13:18:50;;;;;;;13.48;8.95;;;;;;;;;;6225399;28;24433;-74
2024/01/22 13:21:53;;;;;;;12.80;8.52;;;;;;;;;;6227063;28;24430;-74
2024/01/22 13:24:55;;;;;;;11.77;8.52;;;;;;;;;;6227745;28;24809;-74
2024/01/22 13:27:57;;;;;;;10.97;8.53;;;;;;;;;;6227760;28;24500;-74
2024/01/22 13:30:59;;;;;;;12.00;8.40;;;;;;;;;;6225585;28;24463;-74
2024/01/22 13:34:02;;;;;;;9.38;7.63;;;;;;;;;;6227747;28;24417;-74
2024/01/22 13:37:05;;;;;;;10.73;8.10;;;;;;;;;;6224493;28;24438;-74
2024/01/22 13:40:09;;;;;;;10.75;7.88;;;;;;;;;;6225102;28;24424;-74
2024/01/22 13:43:11;;;;;;;11.40;7.57;;;;;;;;;;6225139;28;24456;-74
2024/01/22 13:46:14;;;;;;;10.27;7.75;;;;;;;;;;6226253;28;24872;-74
2024/01/22 13:49:16;;;;;;;11.25;8.32;;;;;;;;;;6223668;28;24519;-74
2024/01/22 13:52:19;;;;;;;12.80;8.90;;;;;;;;;;6227149;28;24576;-74
2024/01/22 13:55:21;;;;;;;12.55;8.57;;;;;;;;;;6225369;28;24412;-74
2024/01/22 13:58:23;;;;;;;10.47;8.50;;;;;;;;;;6226334;28;24979;-74
2024/01/22 14:01:25;;;;;;;11.38;8.00;;;;;;;;;;6221965;28;24650;-74
2024/01/22 14:04:27;;;;;;;10.73;8.15;;;;;;;;;;6213285;28;24614;-74
2024/01/22 14:07:30;;;;;;;11.63;9.00;;;;;;;;;;6219616;28;24430;-74
2024/01/22 14:10:33;;;;;;;11.40;8.25;;;;;;;;;;6238052;28;24837;-74
2024/01/22 14:13:35;;;;;;;12.00;8.25;;;;;;;;;;6226313;28;24447;-74
2024/01/22 14:16:37;;;;;;;10.35;7.80;;;;;;;;;;6225402;28;24497;-74
2024/01/22 14:19:38;;;;;;;11.63;8.32;;;;;;;;;;6208865;28;24416;-74
2024/01/22 14:22:42;;;;;;;12.20;7.70;;;;;;;;;;6225938;28;24841;-74
2024/01/22 14:25:44;;;;;;;9.45;6.97;;;;;;;;;;6225909;28;24875;-74
2024/01/22 14:28:47;;;;;;;12.35;7.68;;;;;;;;;;6226149;28;25020;-74
2024/01/22 14:31:49;;;;;;;11.40;7.65;;;;;;;;;;6225990;28;24514;-74
2024/01/22 14:34:51;;;;;;;10.80;7.40;;;;;;;;;;6227085;28;25159;-74
2024/01/22 14:37:57;;;;;;;9.93;7.50;;;;;;;;;;6225794;28;24470;-74
2024/01/22 14:41:00;;;;;;;12.07;7.43;;;;;;;;;;6226375;28;24424;-74
2024/01/22 14:44:01;;;;;;;16.30;8.75;;;;;;;;;;6225524;28;24495;-74
2024/01/22 14:47:05;;;;;;;15.40;8.27;;;;;;;;;;6225369;28;24425;-71
2024/01/22 14:50:07;;;;;;;13.15;8.05;;;;;;;;;;6229789;28;24416;-74
2024/01/22 14:53:11;;;;;;;16.00;8.13;;;;;;;;;;6231075;28;24427;-73
2024/01/22 14:56:17;;;;;;;36.15;14.43;;;;;;;;;;6229818;28;24424;-74
2024/01/22 14:59:19;;;;;;;16.65;10.68;;;;;;;;;;6229889;28;24479;-74
2024/01/22 15:02:24;;;;;;;12.82;8.35;;;;;;;;;;6230354;28;24619;-74
2024/01/22 15:05:26;;;;;;;12.93;8.45;;;;;;;;;;6230885;28;24679;-73
2024/01/22 15:08:30;;;;;;;15.73;8.52;;;;;;;;;;6231331;28;24435;-75
2024/01/22 15:11:31;;;;;;;12.88;8.30;;;;;;;;;;6230849;28;24462;-74
2024/01/22 15:14:35;;;;;;;11.60;8.02;;;;;;;;;;6230993;28;24436;-74
2024/01/22 15:17:38;;;;;;;9.82;7.28;;;;;;;;;;6231052;28;24474;-77
2024/01/22 15:20:42;;;;;;;12.10;7.17;;;;;;;;;;6228431;28;24597;-78
2024/01/22 15:23:45;;;;;;;8.38;6.50;;;;;;;;;;6230141;28;25097;-78
2024/01/22 15:26:49;;;;;;;9.20;6.18;;;;;;;;;;6229171;28;24435;-78
2024/01/22 15:29:51;;;;;;;10.10;6.88;;;;;;;;;;6229640;28;24763;-78
2024/01/22 15:32:53;;;;;;;9.98;6.45;;;;;;;;;;6229371;28;24424;-78
2024/01/22 15:35:56;;;;;;;9.13;6.00;;;;;;;;;;6230534;28;24424;-78
2024/01/22 15:39:00;;;;;;;8.73;5.90;;;;;;;;;;6230925;28;24504;-78
2024/01/22 15:42:02;;;;;;;8.23;5.07;;;;;;;;;;6228712;28;24646;-78
2024/01/22 15:45:07;;;;;;;8.98;5.68;;;;;;;;;;6229905;28;24490;-78
2024/01/22 15:48:10;;;;;;;8.70;5.90;;;;;;;;;;6230736;28;24476;-78
2024/01/22 15:51:11;;;;;;;7.53;5.18;;;;;;;;;;6230927;28;24467;-78
2024/01/22 15:54:15;;;;;;;9.88;5.72;;;;;;;;;;6229647;28;24424;-78
2024/01/22 15:57:17;;;;;;;8.23;5.20;;;;;;;;;;6219154;28;24423;-78
2024/01/22 16:00:19;;;;;;;8.13;5.40;;;;;;;;;;6229772;28;24420;-79
2024/01/22 16:03:21;;;;;;;8.93;5.78;;;;;;;;;;6230451;28;24424;-78
2024/01/22 16:06:23;;;;;;;9.10;5.63;;;;;;;;;;6228565;28;24432;-78
2024/01/22 16:09:27;;;;;;;8.90;5.85;;;;;;;;;;6235309;28;24447;-78
2024/01/22 16:12:29;;;;;;;10.47;5.77;;;;;;;;;;6212340;28;25059;-78
2024/01/22 16:15:31;;;;;;;8.52;5.70;;;;;;;;;;6211693;28;24417;-78
2024/01/22 16:18:33;;;;;;;11.27;6.20;;;;;;;;;;6230607;28;24452;-78
2024/01/22 16:21:35;;;;;;;9.00;6.00;;;;;;;;;;6230021;28;24899;-78
2024/01/22 16:24:38;;;;;;;8.32;5.93;;;;;;;;;;6228430;28;24536;-78
2024/01/22 16:27:41;;;;;;;10.00;6.03;;;;;;;;;;6229593;28;24432;-77
2024/01/22 16:30:43;;;;;;;8.18;5.72;;;;;;;;;;6229849;28;24420;-78
2024/01/22 16:33:45;;;;;;;8.63;6.03;;;;;;;;;;6229209;28;24448;-78
2024/01/22 16:36:48;;;;;;;9.55;6.15;;;;;;;;;;6227001;28;24626;-78
2024/01/22 16:39:54;;;;;;;9.38;6.32;;;;;;;;;;6225920;28;24412;-78
2024/01/22 16:42:56;;;;;;;9.25;6.13;;;;;;;;;;6228454;28;24503;-78
2024/01/22 16:45:58;;;;;;;8.95;5.90;;;;;;;;;;6227610;28;24448;-78
2024/01/22 16:49:00;;;;;;;9.17;6.20;;;;;;;;;;6228590;28;24417;-78
2024/01/22 16:52:03;;;;;;;10.25;6.55;;;;;;;;;;6228600;28;24536;-78
2024/01/22 16:55:07;;;;;;;9.60;6.15;;;;;;;;;;6228996;28;24418;-78
2024/01/22 16:58:09;;;;;;;9.45;6.25;;;;;;;;;;6229162;28;24580;-78
2024/01/22 17:01:12;;;;;;;11.43;6.90;;;;;;;;;;6210376;28;24751;-78
2024/01/22 17:04:14;;;;;;;10.05;6.70;;;;;;;;;;6226583;28;24647;-77
2024/01/22 17:07:16;;;;;;;10.98;6.97;;;;;;;;;;6228164;28;24436;-77
2024/01/22 17:10:20;;;;;;;12.60;6.75;;;;;;;;;;6228431;28;24815;-77
2024/01/22 17:13:22;;;;;;;11.40;6.90;;;;;;;;;;6226848;28;24654;-78
2024/01/22 17:16:24;;;;;;;12.30;6.90;;;;;;;;;;6227901;28;24427;-78
2024/01/22 17:19:27;;;;;;;10.60;6.50;;;;;;;;;;6228087;28;24486;-78
2024/01/22 17:22:29;;;;;;;12.85;6.75;;;;;;;;;;6227689;28;24557;-78
2024/01/22 17:25:33;;;;;;;9.10;6.20;;;;;;;;;;6226628;28;24433;-78
2024/01/22 17:28:34;;;;;;;10.73;6.30;;;;;;;;;;6226821;28;24429;-78
2024/01/22 17:31:38;;;;;;;10.95;6.10;;;;;;;;;;6228001;28;24427;-78
2024/01/22 17:34:42;;;;;;;8.73;6.38;;;;;;;;;;6225824;28;24849;-79
2024/01/22 17:37:45;;;;;;;9.23;6.10;;;;;;;;;;6211245;28;24608;-78
2024/01/22 17:40:49;;;;;;;13.90;6.55;;;;;;;;;;6227206;28;24428;-78
2024/01/22 17:43:51;;;;;;;11.73;6.32;;;;;;;;;;6226754;28;24412;-78
2024/01/22 17:46:53;;;;;;;10.88;6.43;;;;;;;;;;6225988;28;24428;-78
2024/01/22 17:49:56;;;;;;;9.27;6.05;;;;;;;;;;6227276;28;24803;-77
2024/01/22 17:52:58;;;;;;;9.75;5.88;;;;;;;;;;6227023;28;24579;-78